Terminal Aerodrome Forecast
Issued by NWS

Home | Current Version | Previous Version | Text Only | Print | Product List | Glossary Off
Versions: 1 2 3 4 5 6 7 8 9 10 11 12 13

000
FTUS43 KABR 272300 AAA
TAFPIR
TAF AMD
KPIR 272300Z 2723/2818 24009KT P6SM VCTS SCT040CB BKN200
      TEMPO 2800/2801 VRB30G45KT 2SM +TSRA BKN040CB
     FM280100 32012G20KT P6SM SKC
     FM280700 33010KT P6SM SKC
     FM281700 34015G22KT P6SM SKC=

USA.gov is the U.S. government's official web portal to all federal, state and local government web resources and services.